Flight Track Log - Related Links

Times and Time Zones

All times are in EDT time to prevent confusion due to time zone crossing. See the N498QS flight status page for this flight to view local times or setup timezone preferences in your user account.

Time Position Orientation Groundspeed Altitude Reporting Facility
EDT Latitude Longitude Course Direction KTS MPH feet Rate Location/Type
Sun 08:35:49 PM 33.6167 -111.9167 270° West 167 192 2,600  Level Phoenix TRACON
Sun 08:37:01 PM 33.6167 -111.9833 270° West 169 194 5,000 2,132 Climbing Phoenix TRACON
Sun 08:37:50 PM 33.6333 -112.0333 292° West 215 247 6,900 2,270 Climbing Phoenix TRACON
Sun 08:38:15 PM 33.6147 -112.0506 218° Southwest 216 249 7,800 2,414 Climbing Albuquerque Center
Sun 08:39:17 PM 33.5728 -112.1131 231° Southwest 244 281 10,400 1,756 Climbing Albuquerque Center
Sun 08:40:18 PM 33.4858 -112.1058 176° South 329 379 11,400 1,610 Climbing Albuquerque Center
Sun 08:41:20 PM 33.3958 -112.0753 164° South 336 387 13,700 1,220 Climbing Albuquerque Center
Sun 08:42:21 PM 33.2903 -112.0406 165° South 329 379 13,900 98 Climbing Albuquerque Center
Sun 08:43:23 PM 33.2008 -112.0108 164° South 334 384 13,900  Level Albuquerque Center
Sun 08:44:24 PM 33.1108 -111.9811 165° South 335 386 13,900  Level Albuquerque Center
Sun 08:45:26 PM 33.0197 -111.9511 165° South 338 389 13,900  Level Albuquerque Center
Sun 08:46:27 PM 32.9275 -111.9217 165° South 344 396 13,900  Level Albuquerque Center
Sun 08:47:29 PM 32.8403 -111.8728 155° Southeast 349 402 13,900  Level Albuquerque Center
Sun 08:48:30 PM 32.7608 -111.8031 144° Southeast 354 407 13,900  Level Albuquerque Center
Sun 08:49:32 PM 32.6642 -111.7231 145° Southeast 354 407 13,900 -212 Level Albuquerque Center
Sun 08:50:23 PM 32.5939 -111.6711 148° Southeast 354 407 13,500 -840 Descending Albuquerque Center
Sun 08:51:12 PM 32.5325 -111.6067 138° Southeast 353 406 12,500 -1,167 Descending Albuquerque Center
Sun 08:51:35 PM 32.5158 -111.5753 122° Southeast 356 410 12,100 -1,200 Descending Albuquerque Center
Sun 08:52:12 PM 32.4747 -111.5158 129° Southeast 345 397 11,300 -1,180 Descending Albuquerque Center
Sun 08:52:36 PM 32.4625 -111.4864 116° Southeast 339 390 10,900 -1,180 Descending Albuquerque Center
Sun 08:53:13 PM 32.4347 -111.4306 121° Southeast 310 357 10,100 -1,180 Descending Albuquerque Center
Sun 08:53:37 PM 32.4242 -111.4031 114° Southeast 298 343 9,700 -1,700 Descending Albuquerque Center
Sun 08:54:13 PM 32.3958 -111.3500 122° Southeast 285 328 8,400 -1,935 Descending Albuquerque Center
Sun 08:54:39 PM 32.3858 -111.3233 114° Southeast 283 326 7,700 -1,869 Descending Albuquerque Center
Sun 08:55:14 PM 32.3569 -111.2697 123° Southeast 281 323 6,500 -1,645 Descending Albuquerque Center
Sun 08:55:41 PM 32.3461 -111.2431 116° Southeast 282 325 6,000 -492 Descending Albuquerque Center
Sun 08:56:15 PM 32.3183 -111.1917 123° Southeast 277 319 6,000  Level Albuquerque Center
Sun 08:56:42 PM 32.3103 -111.1650 110° East 278 320 6,000  Level Albuquerque Center
Sun 08:57:15 PM 32.2789 -111.1319 138° Southeast 238 274 6,000 -98 Level Albuquerque Center
Sun 08:57:43 PM 32.2589 -111.0958 123° Southeast 257 296 5,900 -545 Descending Albuquerque Center
Sun 08:58:10 PM 32.2347 -111.0808 152° Southeast 242 278 5,500 -968 Descending Albuquerque Center
Sun 08:58:45 PM 32.2108 -111.0450 128° Southeast 245 282 4,900 -1,200 Descending Albuquerque Center
Sun 08:59:10 PM 32.1925 -111.0292 144° Southeast 222 255 4,300 -984 Descending Albuquerque Center
Sun 08:59:46 PM 32.1744 -111.0039 130° Southeast 205 236 3,900 -689 Descending Albuquerque Center
Sun 09:00:11 PM 32.1592 -110.9903 143° Southeast 167 192 3,600 -837 Descending Albuquerque Center
Sun 09:01:12 PM 32.1264 -110.9539 137° Southeast 152 175 2,700 -885 Descending Albuquerque Center
Sun 09:03:00 PM 32.1161 -110.9410 132° Southeast  Level Estimated

Login

Don't have an account? Register now (free) for customized features, flight alerts, and more!